sensor_id;sensor_type;location;lat;lon;timestamp;P1;durP1;ratioP1;P2;durP2;ratioP2
5412;SDS011;2729;50.056;8.678;2023-07-30T00:02:21;4.50;;;2.40;;
5412;SDS011;2729;50.056;8.678;2023-07-30T00:04:47;8.97;;;2.47;;
5412;SDS011;2729;50.056;8.678;2023-07-30T00:07:13;1.90;;;1.80;;
5412;SDS011;2729;50.056;8.678;2023-07-30T00:09:39;4.03;;;2.20;;
5412;SDS011;2729;50.056;8.678;2023-07-30T00:12:05;4.93;;;2.30;;
5412;SDS011;2729;50.056;8.678;2023-07-30T00:14:31;2.10;;;2.00;;
5412;SDS011;2729;50.056;8.678;2023-07-30T00:16:57;9.93;;;2.33;;
5412;SDS011;2729;50.056;8.678;2023-07-30T00:19:23;2.20;;;2.00;;
5412;SDS011;2729;50.056;8.678;2023-07-30T00:21:49;5.23;;;3.20;;
5412;SDS011;2729;50.056;8.678;2023-07-30T00:24:15;3.83;;;2.20;;
5412;SDS011;2729;50.056;8.678;2023-07-30T00:26:40;2.83;;;2.13;;
5412;SDS011;2729;50.056;8.678;2023-07-30T00:29:06;2.47;;;1.97;;
5412;SDS011;2729;50.056;8.678;2023-07-30T00:31:31;3.13;;;2.30;;
5412;SDS011;2729;50.056;8.678;2023-07-30T00:33:57;3.20;;;2.40;;
5412;SDS011;2729;50.056;8.678;2023-07-30T00:36:23;2.70;;;2.37;;
5412;SDS011;2729;50.056;8.678;2023-07-30T00:38:49;3.13;;;2.60;;
5412;SDS011;2729;50.056;8.678;2023-07-30T00:41:14;4.43;;;2.60;;
5412;SDS011;2729;50.056;8.678;2023-07-30T00:43:40;2.37;;;2.17;;
5412;SDS011;2729;50.056;8.678;2023-07-30T00:46:05;2.10;;;2.00;;
5412;SDS011;2729;50.056;8.678;2023-07-30T00:48:31;4.43;;;1.90;;
5412;SDS011;2729;50.056;8.678;2023-07-30T00:50:57;2.40;;;2.20;;
5412;SDS011;2729;50.056;8.678;2023-07-30T00:53:23;2.20;;;2.10;;
5412;SDS011;2729;50.056;8.678;2023-07-30T00:55:49;4.57;;;2.13;;
5412;SDS011;2729;50.056;8.678;2023-07-30T00:58:15;2.40;;;2.30;;
5412;SDS011;2729;50.056;8.678;2023-07-30T01:00:40;3.57;;;2.60;;
5412;SDS011;2729;50.056;8.678;2023-07-30T01:03:06;2.73;;;2.30;;
5412;SDS011;2729;50.056;8.678;2023-07-30T01:05:32;7.27;;;2.10;;
5412;SDS011;2729;50.056;8.678;2023-07-30T01:07:58;3.50;;;2.13;;
5412;SDS011;2729;50.056;8.678;2023-07-30T01:10:24;2.40;;;2.20;;
5412;SDS011;2729;50.056;8.678;2023-07-30T01:12:50;3.77;;;2.53;;
5412;SDS011;2729;50.056;8.678;2023-07-30T01:15:16;2.50;;;2.30;;
5412;SDS011;2729;50.056;8.678;2023-07-30T01:17:42;5.53;;;2.43;;
5412;SDS011;2729;50.056;8.678;2023-07-30T01:20:08;2.47;;;2.27;;
5412;SDS011;2729;50.056;8.678;2023-07-30T01:22:33;2.83;;;1.97;;
5412;SDS011;2729;50.056;8.678;2023-07-30T01:24:59;3.00;;;2.40;;
5412;SDS011;2729;50.056;8.678;2023-07-30T01:27:29;3.50;;;2.40;;
5412;SDS011;2729;50.056;8.678;2023-07-30T01:30:10;2.80;;;2.60;;
5412;SDS011;2729;50.056;8.678;2023-07-30T01:32:38;3.53;;;2.00;;
5412;SDS011;2729;50.056;8.678;2023-07-30T01:35:04;4.13;;;2.30;;
5412;SDS011;2729;50.056;8.678;2023-07-30T01:37:32;2.53;;;2.33;;
5412;SDS011;2729;50.056;8.678;2023-07-30T01:39:59;2.40;;;2.13;;
5412;SDS011;2729;50.056;8.678;2023-07-30T01:42:29;3.53;;;2.00;;
5412;SDS011;2729;50.056;8.678;2023-07-30T01:44:54;3.90;;;2.63;;
5412;SDS011;2729;50.056;8.678;2023-07-30T01:47:20;2.30;;;2.10;;
5412;SDS011;2729;50.056;8.678;2023-07-30T01:49:46;2.50;;;2.30;;
5412;SDS011;2729;50.056;8.678;2023-07-30T01:52:11;6.73;;;2.37;;
5412;SDS011;2729;50.056;8.678;2023-07-30T01:54:37;3.60;;;2.27;;
5412;SDS011;2729;50.056;8.678;2023-07-30T01:57:03;2.20;;;2.00;;
5412;SDS011;2729;50.056;8.678;2023-07-30T01:59:29;2.50;;;2.30;;
5412;SDS011;2729;50.056;8.678;2023-07-30T02:01:54;6.03;;;2.20;;
5412;SDS011;2729;50.056;8.678;2023-07-30T02:04:20;4.80;;;2.07;;
5412;SDS011;2729;50.056;8.678;2023-07-30T02:06:46;2.40;;;2.20;;
5412;SDS011;2729;50.056;8.678;2023-07-30T02:09:13;2.20;;;2.00;;
5412;SDS011;2729;50.056;8.678;2023-07-30T02:11:40;1.97;;;1.87;;
5412;SDS011;2729;50.056;8.678;2023-07-30T02:14:06;2.50;;;2.13;;
5412;SDS011;2729;50.056;8.678;2023-07-30T02:16:31;7.07;;;2.50;;
5412;SDS011;2729;50.056;8.678;2023-07-30T02:18:57;4.50;;;2.00;;
5412;SDS011;2729;50.056;8.678;2023-07-30T02:21:23;2.13;;;1.70;;
5412;SDS011;2729;50.056;8.678;2023-07-30T02:23:48;2.27;;;2.07;;
5412;SDS011;2729;50.056;8.678;2023-07-30T02:26:14;2.10;;;1.90;;
5412;SDS011;2729;50.056;8.678;2023-07-30T02:28:39;2.40;;;2.20;;
5412;SDS011;2729;50.056;8.678;2023-07-30T02:31:05;2.10;;;1.90;;
5412;SDS011;2729;50.056;8.678;2023-07-30T02:33:31;1.80;;;1.70;;
5412;SDS011;2729;50.056;8.678;2023-07-30T02:35:56;2.30;;;2.20;;
5412;SDS011;2729;50.056;8.678;2023-07-30T02:38:22;2.20;;;2.10;;
5412;SDS011;2729;50.056;8.678;2023-07-30T02:40:48;2.00;;;1.90;;
5412;SDS011;2729;50.056;8.678;2023-07-30T02:43:13;2.60;;;2.40;;
5412;SDS011;2729;50.056;8.678;2023-07-30T02:45:39;3.70;;;2.20;;
5412;SDS011;2729;50.056;8.678;2023-07-30T02:48:06;2.40;;;2.20;;
5412;SDS011;2729;50.056;8.678;2023-07-30T02:50:32;2.53;;;2.33;;
5412;SDS011;2729;50.056;8.678;2023-07-30T02:52:58;3.53;;;2.00;;
5412;SDS011;2729;50.056;8.678;2023-07-30T02:55:23;3.17;;;2.40;;
5412;SDS011;2729;50.056;8.678;2023-07-30T02:57:49;2.70;;;2.50;;
5412;SDS011;2729;50.056;8.678;2023-07-30T03:00:15;2.27;;;2.17;;
5412;SDS011;2729;50.056;8.678;2023-07-30T03:02:43;4.00;;;2.07;;
5412;SDS011;2729;50.056;8.678;2023-07-30T03:05:09;5.87;;;2.00;;
5412;SDS011;2729;50.056;8.678;2023-07-30T03:07:35;3.73;;;1.80;;
5412;SDS011;2729;50.056;8.678;2023-07-30T03:10:01;2.03;;;1.93;;
5412;SDS011;2729;50.056;8.678;2023-07-30T03:12:27;1.80;;;1.70;;
5412;SDS011;2729;50.056;8.678;2023-07-30T03:14:52;4.53;;;3.77;;
5412;SDS011;2729;50.056;8.678;2023-07-30T03:17:18;2.33;;;2.13;;
5412;SDS011;2729;50.056;8.678;2023-07-30T03:19:46;4.30;;;2.20;;
5412;SDS011;2729;50.056;8.678;2023-07-30T03:22:11;1.90;;;1.80;;
5412;SDS011;2729;50.056;8.678;2023-07-30T03:24:37;2.40;;;2.20;;
5412;SDS011;2729;50.056;8.678;2023-07-30T03:27:02;1.63;;;1.47;;
5412;SDS011;2729;50.056;8.678;2023-07-30T03:29:28;4.23;;;1.77;;
5412;SDS011;2729;50.056;8.678;2023-07-30T03:31:54;3.90;;;2.00;;
5412;SDS011;2729;50.056;8.678;2023-07-30T03:34:19;8.73;;;1.67;;
5412;SDS011;2729;50.056;8.678;2023-07-30T03:36:45;1.97;;;1.77;;
5412;SDS011;2729;50.056;8.678;2023-07-30T03:39:11;1.93;;;1.80;;
5412;SDS011;2729;50.056;8.678;2023-07-30T03:41:37;10.20;;;2.20;;
5412;SDS011;2729;50.056;8.678;2023-07-30T03:44:03;2.07;;;1.97;;
5412;SDS011;2729;50.056;8.678;2023-07-30T03:46:28;1.60;;;1.50;;
5412;SDS011;2729;50.056;8.678;2023-07-30T03:48:54;6.50;;;1.77;;
5412;SDS011;2729;50.056;8.678;2023-07-30T03:51:19;1.87;;;1.77;;
5412;SDS011;2729;50.056;8.678;2023-07-30T03:53:45;4.00;;;1.83;;
5412;SDS011;2729;50.056;8.678;2023-07-30T03:56:11;2.93;;;2.07;;
5412;SDS011;2729;50.056;8.678;2023-07-30T03:58:36;2.33;;;2.00;;
5412;SDS011;2729;50.056;8.678;2023-07-30T04:01:02;2.80;;;1.90;;
5412;SDS011;2729;50.056;8.678;2023-07-30T04:03:28;1.90;;;1.80;;
5412;SDS011;2729;50.056;8.678;2023-07-30T04:05:53;1.90;;;1.80;;
5412;SDS011;2729;50.056;8.678;2023-07-30T04:08:19;2.73;;;1.50;;
5412;SDS011;2729;50.056;8.678;2023-07-30T04:10:45;1.80;;;1.70;;
5412;SDS011;2729;50.056;8.678;2023-07-30T04:13:10;6.83;;;2.20;;
5412;SDS011;2729;50.056;8.678;2023-07-30T04:15:36;1.87;;;1.67;;
5412;SDS011;2729;50.056;8.678;2023-07-30T04:18:01;4.20;;;2.10;;
5412;SDS011;2729;50.056;8.678;2023-07-30T04:20:27;1.70;;;1.70;;
5412;SDS011;2729;50.056;8.678;2023-07-30T04:22:54;1.80;;;1.70;;
5412;SDS011;2729;50.056;8.678;2023-07-30T04:25:20;3.93;;;2.00;;
5412;SDS011;2729;50.056;8.678;2023-07-30T04:27:45;7.93;;;2.20;;
5412;SDS011;2729;50.056;8.678;2023-07-30T04:30:11;2.23;;;2.10;;
5412;SDS011;2729;50.056;8.678;2023-07-30T04:32:37;3.80;;;2.17;;
5412;SDS011;2729;50.056;8.678;2023-07-30T04:35:03;1.97;;;1.83;;
5412;SDS011;2729;50.056;8.678;2023-07-30T04:37:28;12.43;;;1.80;;
5412;SDS011;2729;50.056;8.678;2023-07-30T04:39:54;6.00;;;2.23;;
5412;SDS011;2729;50.056;8.678;2023-07-30T04:42:21;2.03;;;1.60;;
5412;SDS011;2729;50.056;8.678;2023-07-30T04:44:47;4.10;;;2.27;;
5412;SDS011;2729;50.056;8.678;2023-07-30T04:47:15;2.17;;;2.07;;
5412;SDS011;2729;50.056;8.678;2023-07-30T04:49:41;6.70;;;2.03;;
5412;SDS011;2729;50.056;8.678;2023-07-30T04:52:09;2.70;;;2.43;;
5412;SDS011;2729;50.056;8.678;2023-07-30T04:54:35;2.20;;;2.00;;
5412;SDS011;2729;50.056;8.678;2023-07-30T04:57:03;1.90;;;1.80;;
5412;SDS011;2729;50.056;8.678;2023-07-30T04:59:29;1.53;;;1.43;;
5412;SDS011;2729;50.056;8.678;2023-07-30T05:01:55;8.30;;;1.87;;
5412;SDS011;2729;50.056;8.678;2023-07-30T05:04:20;3.30;;;1.87;;
5412;SDS011;2729;50.056;8.678;2023-07-30T05:06:46;2.07;;;1.87;;
5412;SDS011;2729;50.056;8.678;2023-07-30T05:09:11;1.97;;;1.87;;
5412;SDS011;2729;50.056;8.678;2023-07-30T05:11:40;2.53;;;2.10;;
5412;SDS011;2729;50.056;8.678;2023-07-30T05:14:06;4.77;;;2.30;;
5412;SDS011;2729;50.056;8.678;2023-07-30T05:16:32;1.80;;;1.70;;
5412;SDS011;2729;50.056;8.678;2023-07-30T05:18:57;2.10;;;1.90;;
5412;SDS011;2729;50.056;8.678;2023-07-30T05:21:23;2.50;;;2.20;;
5412;SDS011;2729;50.056;8.678;2023-07-30T05:23:49;1.93;;;1.73;;
5412;SDS011;2729;50.056;8.678;2023-07-30T05:26:14;2.23;;;2.03;;
5412;SDS011;2729;50.056;8.678;2023-07-30T05:28:41;1.80;;;1.70;;
5412;SDS011;2729;50.056;8.678;2023-07-30T05:31:07;2.17;;;2.03;;
5412;SDS011;2729;50.056;8.678;2023-07-30T05:33:33;1.70;;;1.60;;
5412;SDS011;2729;50.056;8.678;2023-07-30T05:35:58;3.23;;;2.00;;
5412;SDS011;2729;50.056;8.678;2023-07-30T05:38:24;1.67;;;1.67;;
5412;SDS011;2729;50.056;8.678;2023-07-30T05:40:49;1.90;;;1.80;;
5412;SDS011;2729;50.056;8.678;2023-07-30T05:43:15;3.33;;;1.90;;
5412;SDS011;2729;50.056;8.678;2023-07-30T05:45:41;2.10;;;1.90;;
5412;SDS011;2729;50.056;8.678;2023-07-30T05:48:06;2.83;;;1.70;;
5412;SDS011;2729;50.056;8.678;2023-07-30T05:50:32;2.00;;;1.90;;
5412;SDS011;2729;50.056;8.678;2023-07-30T05:52:57;3.63;;;2.07;;
5412;SDS011;2729;50.056;8.678;2023-07-30T05:55:23;1.90;;;1.80;;
5412;SDS011;2729;50.056;8.678;2023-07-30T05:57:49;2.10;;;2.00;;
5412;SDS011;2729;50.056;8.678;2023-07-30T06:00:14;4.30;;;2.23;;
5412;SDS011;2729;50.056;8.678;2023-07-30T06:02:40;1.90;;;1.80;;
5412;SDS011;2729;50.056;8.678;2023-07-30T06:05:06;5.20;;;1.70;;
5412;SDS011;2729;50.056;8.678;2023-07-30T06:07:31;3.47;;;2.00;;
5412;SDS011;2729;50.056;8.678;2023-07-30T06:09:58;2.83;;;1.57;;
5412;SDS011;2729;50.056;8.678;2023-07-30T06:12:24;2.07;;;1.80;;
5412;SDS011;2729;50.056;8.678;2023-07-30T06:14:50;4.10;;;2.40;;
5412;SDS011;2729;50.056;8.678;2023-07-30T06:17:15;4.13;;;2.10;;
5412;SDS011;2729;50.056;8.678;2023-07-30T06:19:41;2.10;;;2.00;;
5412;SDS011;2729;50.056;8.678;2023-07-30T06:22:08;2.70;;;2.13;;
5412;SDS011;2729;50.056;8.678;2023-07-30T06:24:33;2.40;;;1.60;;
5412;SDS011;2729;50.056;8.678;2023-07-30T06:27:02;1.80;;;1.70;;
5412;SDS011;2729;50.056;8.678;2023-07-30T06:29:28;1.70;;;1.60;;
5412;SDS011;2729;50.056;8.678;2023-07-30T06:31:53;4.90;;;1.70;;
5412;SDS011;2729;50.056;8.678;2023-07-30T06:34:19;2.33;;;2.13;;
5412;SDS011;2729;50.056;8.678;2023-07-30T06:36:44;2.40;;;1.97;;
5412;SDS011;2729;50.056;8.678;2023-07-30T06:39:10;1.80;;;1.70;;
5412;SDS011;2729;50.056;8.678;2023-07-30T06:41:36;4.23;;;1.63;;
5412;SDS011;2729;50.056;8.678;2023-07-30T06:44:02;1.87;;;1.77;;
5412;SDS011;2729;50.056;8.678;2023-07-30T06:46:29;10.30;;;1.80;;
5412;SDS011;2729;50.056;8.678;2023-07-30T06:48:55;1.67;;;1.57;;
5412;SDS011;2729;50.056;8.678;2023-07-30T06:51:23;2.13;;;1.93;;
5412;SDS011;2729;50.056;8.678;2023-07-30T06:53:49;2.07;;;1.87;;
5412;SDS011;2729;50.056;8.678;2023-07-30T06:56:15;3.93;;;3.63;;
5412;SDS011;2729;50.056;8.678;2023-07-30T06:58:40;3.10;;;1.90;;
5412;SDS011;2729;50.056;8.678;2023-07-30T07:01:06;2.60;;;1.60;;
5412;SDS011;2729;50.056;8.678;2023-07-30T07:03:31;1.60;;;1.50;;
5412;SDS011;2729;50.056;8.678;2023-07-30T07:05:57;2.50;;;1.50;;
5412;SDS011;2729;50.056;8.678;2023-07-30T07:08:23;2.80;;;1.77;;
5412;SDS011;2729;50.056;8.678;2023-07-30T07:10:48;1.83;;;1.70;;
5412;SDS011;2729;50.056;8.678;2023-07-30T07:13:14;2.10;;;1.90;;
5412;SDS011;2729;50.056;8.678;2023-07-30T07:15:43;1.50;;;1.50;;
5412;SDS011;2729;50.056;8.678;2023-07-30T07:18:08;1.63;;;1.53;;
5412;SDS011;2729;50.056;8.678;2023-07-30T07:20:34;1.57;;;1.47;;
5412;SDS011;2729;50.056;8.678;2023-07-30T07:23:00;4.37;;;2.20;;
5412;SDS011;2729;50.056;8.678;2023-07-30T07:25:25;3.23;;;1.50;;
5412;SDS011;2729;50.056;8.678;2023-07-30T07:27:52;1.90;;;1.60;;
5412;SDS011;2729;50.056;8.678;2023-07-30T07:30:18;1.57;;;1.47;;
5412;SDS011;2729;50.056;8.678;2023-07-30T07:32:43;4.00;;;1.80;;
5412;SDS011;2729;50.056;8.678;2023-07-30T07:35:09;2.80;;;1.57;;
5412;SDS011;2729;50.056;8.678;2023-07-30T07:37:35;2.50;;;1.63;;
5412;SDS011;2729;50.056;8.678;2023-07-30T07:40:00;1.67;;;1.57;;
5412;SDS011;2729;50.056;8.678;2023-07-30T07:42:26;2.10;;;1.40;;
5412;SDS011;2729;50.056;8.678;2023-07-30T07:44:52;1.77;;;1.30;;
5412;SDS011;2729;50.056;8.678;2023-07-30T07:47:17;2.50;;;1.60;;
5412;SDS011;2729;50.056;8.678;2023-07-30T07:49:43;2.40;;;1.53;;
5412;SDS011;2729;50.056;8.678;2023-07-30T07:52:09;2.00;;;1.40;;
5412;SDS011;2729;50.056;8.678;2023-07-30T07:54:35;1.47;;;1.37;;
5412;SDS011;2729;50.056;8.678;2023-07-30T07:57:01;1.50;;;1.40;;
5412;SDS011;2729;50.056;8.678;2023-07-30T07:59:27;1.53;;;1.30;;
5412;SDS011;2729;50.056;8.678;2023-07-30T08:01:53;2.10;;;1.90;;
5412;SDS011;2729;50.056;8.678;2023-07-30T08:04:18;3.93;;;2.20;;
5412;SDS011;2729;50.056;8.678;2023-07-30T08:06:46;2.60;;;1.07;;
5412;SDS011;2729;50.056;8.678;2023-07-30T08:09:12;1.70;;;1.60;;
5412;SDS011;2729;50.056;8.678;2023-07-30T08:11:38;1.63;;;1.53;;
5412;SDS011;2729;50.056;8.678;2023-07-30T08:14:04;1.57;;;1.47;;
5412;SDS011;2729;50.056;8.678;2023-07-30T08:16:29;1.60;;;1.50;;
5412;SDS011;2729;50.056;8.678;2023-07-30T08:18:55;3.17;;;1.60;;
5412;SDS011;2729;50.056;8.678;2023-07-30T08:21:21;1.30;;;1.30;;
5412;SDS011;2729;50.056;8.678;2023-07-30T08:23:46;1.80;;;1.30;;
5412;SDS011;2729;50.056;8.678;2023-07-30T08:26:12;1.60;;;1.50;;
5412;SDS011;2729;50.056;8.678;2023-07-30T08:28:38;1.60;;;1.50;;
5412;SDS011;2729;50.056;8.678;2023-07-30T08:31:03;1.60;;;1.50;;
5412;SDS011;2729;50.056;8.678;2023-07-30T08:33:29;2.30;;;1.50;;
5412;SDS011;2729;50.056;8.678;2023-07-30T08:35:55;2.03;;;1.83;;
5412;SDS011;2729;50.056;8.678;2023-07-30T08:38:21;1.93;;;1.30;;
5412;SDS011;2729;50.056;8.678;2023-07-30T08:40:47;5.63;;;1.40;;
5412;SDS011;2729;50.056;8.678;2023-07-30T08:43:12;1.63;;;1.53;;
5412;SDS011;2729;50.056;8.678;2023-07-30T08:45:38;1.80;;;1.70;;
5412;SDS011;2729;50.056;8.678;2023-07-30T08:48:04;2.37;;;1.40;;
5412;SDS011;2729;50.056;8.678;2023-07-30T08:50:31;2.53;;;1.67;;
5412;SDS011;2729;50.056;8.678;2023-07-30T08:52:57;1.90;;;1.70;;
5412;SDS011;2729;50.056;8.678;2023-07-30T08:57:55;1.40;;;1.30;;
5412;SDS011;2729;50.056;8.678;2023-07-30T09:00:22;1.23;;;1.23;;
5412;SDS011;2729;50.056;8.678;2023-07-30T09:02:50;1.50;;;1.40;;
5412;SDS011;2729;50.056;8.678;2023-07-30T09:05:17;1.30;;;1.30;;
5412;SDS011;2729;50.056;8.678;2023-07-30T09:07:43;1.50;;;1.40;;
5412;SDS011;2729;50.056;8.678;2023-07-30T09:10:08;2.50;;;1.57;;
5412;SDS011;2729;50.056;8.678;2023-07-30T09:12:35;1.67;;;1.57;;
5412;SDS011;2729;50.056;8.678;2023-07-30T09:15:04;1.73;;;1.57;;
5412;SDS011;2729;50.056;8.678;2023-07-30T09:17:31;1.63;;;1.30;;
5412;SDS011;2729;50.056;8.678;2023-07-30T09:20:01;1.63;;;1.53;;
5412;SDS011;2729;50.056;8.678;2023-07-30T09:22:27;2.00;;;1.90;;
5412;SDS011;2729;50.056;8.678;2023-07-30T09:24:53;1.20;;;1.20;;
5412;SDS011;2729;50.056;8.678;2023-07-30T09:27:23;1.73;;;1.60;;
5412;SDS011;2729;50.056;8.678;2023-07-30T09:29:52;1.93;;;1.60;;
5412;SDS011;2729;50.056;8.678;2023-07-30T09:32:18;3.90;;;2.03;;
5412;SDS011;2729;50.056;8.678;2023-07-30T09:34:44;2.40;;;1.80;;
5412;SDS011;2729;50.056;8.678;2023-07-30T09:37:10;1.77;;;1.70;;
5412;SDS011;2729;50.056;8.678;2023-07-30T09:39:42;1.73;;;1.63;;
5412;SDS011;2729;50.056;8.678;2023-07-30T09:42:08;1.27;;;1.27;;
5412;SDS011;2729;50.056;8.678;2023-07-30T09:44:34;1.63;;;1.53;;
5412;SDS011;2729;50.056;8.678;2023-07-30T09:47:01;1.70;;;1.60;;
5412;SDS011;2729;50.056;8.678;2023-07-30T09:49:30;3.77;;;1.10;;
5412;SDS011;2729;50.056;8.678;2023-07-30T09:51:57;1.33;;;1.23;;
5412;SDS011;2729;50.056;8.678;2023-07-30T09:54:23;1.63;;;1.10;;
5412;SDS011;2729;50.056;8.678;2023-07-30T09:56:49;1.33;;;1.23;;
5412;SDS011;2729;50.056;8.678;2023-07-30T09:59:14;1.03;;;1.03;;
5412;SDS011;2729;50.056;8.678;2023-07-30T10:01:43;0.83;;;0.83;;
5412;SDS011;2729;50.056;8.678;2023-07-30T10:04:10;1.60;;;1.00;;
5412;SDS011;2729;50.056;8.678;2023-07-30T10:06:46;1.30;;;1.20;;
5412;SDS011;2729;50.056;8.678;2023-07-30T10:09:13;1.13;;;1.13;;
5412;SDS011;2729;50.056;8.678;2023-07-30T10:11:40;1.40;;;1.30;;
5412;SDS011;2729;50.056;8.678;2023-07-30T10:14:07;0.90;;;0.90;;
5412;SDS011;2729;50.056;8.678;2023-07-30T10:16:33;1.43;;;1.20;;
5412;SDS011;2729;50.056;8.678;2023-07-30T10:18:58;0.90;;;0.90;;
5412;SDS011;2729;50.056;8.678;2023-07-30T10:21:25;1.17;;;1.00;;
5412;SDS011;2729;50.056;8.678;2023-07-30T10:24:01;2.17;;;0.80;;
5412;SDS011;2729;50.056;8.678;2023-07-30T10:26:30;0.70;;;0.70;;
5412;SDS011;2729;50.056;8.678;2023-07-30T10:29:12;2.87;;;0.90;;
5412;SDS011;2729;50.056;8.678;2023-07-30T10:31:38;1.17;;;0.70;;
5412;SDS011;2729;50.056;8.678;2023-07-30T10:34:09;0.90;;;0.90;;
5412;SDS011;2729;50.056;8.678;2023-07-30T10:36:42;1.00;;;0.87;;
5412;SDS011;2729;50.056;8.678;2023-07-30T10:39:12;1.33;;;0.83;;
5412;SDS011;2729;50.056;8.678;2023-07-30T10:41:38;3.00;;;1.00;;
5412;SDS011;2729;50.056;8.678;2023-07-30T10:44:04;0.90;;;0.90;;
5412;SDS011;2729;50.056;8.678;2023-07-30T10:46:30;2.50;;;0.87;;
5412;SDS011;2729;50.056;8.678;2023-07-30T10:48:55;1.33;;;0.80;;
5412;SDS011;2729;50.056;8.678;2023-07-30T10:51:21;1.23;;;0.90;;
5412;SDS011;2729;50.056;8.678;2023-07-30T10:53:48;1.23;;;1.13;;
5412;SDS011;2729;50.056;8.678;2023-07-30T10:56:21;1.27;;;0.70;;
5412;SDS011;2729;50.056;8.678;2023-07-30T10:58:50;0.80;;;0.80;;
5412;SDS011;2729;50.056;8.678;2023-07-30T11:01:17;2.40;;;1.10;;
5412;SDS011;2729;50.056;8.678;2023-07-30T11:03:43;1.30;;;1.13;;
5412;SDS011;2729;50.056;8.678;2023-07-30T11:06:08;0.90;;;0.90;;
5412;SDS011;2729;50.056;8.678;2023-07-30T11:08:38;2.33;;;1.13;;
5412;SDS011;2729;50.056;8.678;2023-07-30T11:11:05;1.27;;;1.17;;
5412;SDS011;2729;50.056;8.678;2023-07-30T11:13:35;2.20;;;1.17;;
5412;SDS011;2729;50.056;8.678;2023-07-30T11:16:01;1.03;;;0.80;;
5412;SDS011;2729;50.056;8.678;2023-07-30T11:18:26;0.87;;;0.87;;
5412;SDS011;2729;50.056;8.678;2023-07-30T11:21:02;1.17;;;1.00;;
5412;SDS011;2729;50.056;8.678;2023-07-30T11:23:27;2.70;;;1.20;;
5412;SDS011;2729;50.056;8.678;2023-07-30T11:28:32;1.93;;;1.37;;
5412;SDS011;2729;50.056;8.678;2023-07-30T11:31:02;1.63;;;1.00;;
5412;SDS011;2729;50.056;8.678;2023-07-30T11:33:28;2.70;;;1.30;;
5412;SDS011;2729;50.056;8.678;2023-07-30T11:35:54;2.40;;;1.33;;
5412;SDS011;2729;50.056;8.678;2023-07-30T11:38:21;4.23;;;1.57;;
5412;SDS011;2729;50.056;8.678;2023-07-30T11:40:47;2.07;;;1.30;;
5412;SDS011;2729;50.056;8.678;2023-07-30T11:43:13;1.20;;;1.10;;
5412;SDS011;2729;50.056;8.678;2023-07-30T11:45:39;3.87;;;1.53;;
5412;SDS011;2729;50.056;8.678;2023-07-30T11:48:05;5.67;;;1.30;;
5412;SDS011;2729;50.056;8.678;2023-07-30T11:50:46;1.60;;;1.20;;
5412;SDS011;2729;50.056;8.678;2023-07-30T11:53:12;1.47;;;1.37;;
5412;SDS011;2729;50.056;8.678;2023-07-30T11:55:38;1.33;;;1.23;;
5412;SDS011;2729;50.056;8.678;2023-07-30T11:58:05;2.00;;;1.30;;
5412;SDS011;2729;50.056;8.678;2023-07-30T12:00:31;4.60;;;1.30;;
5412;SDS011;2729;50.056;8.678;2023-07-30T12:02:59;9.03;;;1.40;;
5412;SDS011;2729;50.056;8.678;2023-07-30T12:05:33;1.23;;;1.00;;
5412;SDS011;2729;50.056;8.678;2023-07-30T12:08:00;4.73;;;1.27;;
5412;SDS011;2729;50.056;8.678;2023-07-30T12:10:28;1.57;;;1.43;;
5412;SDS011;2729;50.056;8.678;2023-07-30T12:13:10;1.50;;;1.23;;
5412;SDS011;2729;50.056;8.678;2023-07-30T12:15:36;1.53;;;1.43;;
5412;SDS011;2729;50.056;8.678;2023-07-30T12:18:01;4.47;;;1.40;;
5412;SDS011;2729;50.056;8.678;2023-07-30T12:20:27;2.80;;;1.47;;
5412;SDS011;2729;50.056;8.678;2023-07-30T12:22:53;3.23;;;1.00;;
5412;SDS011;2729;50.056;8.678;2023-07-30T12:25:19;2.80;;;1.30;;
5412;SDS011;2729;50.056;8.678;2023-07-30T12:27:44;1.37;;;1.27;;
5412;SDS011;2729;50.056;8.678;2023-07-30T12:30:10;2.23;;;1.37;;
5412;SDS011;2729;50.056;8.678;2023-07-30T12:32:36;1.30;;;1.20;;
5412;SDS011;2729;50.056;8.678;2023-07-30T12:35:01;0.90;;;0.90;;
5412;SDS011;2729;50.056;8.678;2023-07-30T12:37:27;3.37;;;1.17;;
5412;SDS011;2729;50.056;8.678;2023-07-30T12:39:53;2.63;;;1.20;;
5412;SDS011;2729;50.056;8.678;2023-07-30T12:42:20;1.10;;;1.10;;
5412;SDS011;2729;50.056;8.678;2023-07-30T12:44:45;3.30;;;1.40;;
5412;SDS011;2729;50.056;8.678;2023-07-30T12:47:11;2.63;;;1.30;;
5412;SDS011;2729;50.056;8.678;2023-07-30T12:49:37;1.80;;;1.10;;
5412;SDS011;2729;50.056;8.678;2023-07-30T12:52:02;1.17;;;1.07;;
5412;SDS011;2729;50.056;8.678;2023-07-30T12:54:28;1.17;;;1.00;;
5412;SDS011;2729;50.056;8.678;2023-07-30T12:56:53;2.23;;;1.70;;
5412;SDS011;2729;50.056;8.678;2023-07-30T12:59:19;2.00;;;1.47;;
5412;SDS011;2729;50.056;8.678;2023-07-30T13:01:45;1.47;;;1.13;;
5412;SDS011;2729;50.056;8.678;2023-07-30T13:04:10;1.53;;;1.30;;
5412;SDS011;2729;50.056;8.678;2023-07-30T13:06:36;2.93;;;1.30;;
5412;SDS011;2729;50.056;8.678;2023-07-30T13:09:01;4.90;;;2.70;;
5412;SDS011;2729;50.056;8.678;2023-07-30T13:11:27;4.47;;;1.23;;
5412;SDS011;2729;50.056;8.678;2023-07-30T13:13:53;2.30;;;1.00;;
5412;SDS011;2729;50.056;8.678;2023-07-30T13:16:18;3.93;;;1.03;;
5412;SDS011;2729;50.056;8.678;2023-07-30T13:18:44;2.10;;;1.10;;
5412;SDS011;2729;50.056;8.678;2023-07-30T13:21:09;4.30;;;1.10;;
5412;SDS011;2729;50.056;8.678;2023-07-30T13:23:38;3.33;;;1.47;;
5412;SDS011;2729;50.056;8.678;2023-07-30T13:26:57;1.90;;;1.33;;
5412;SDS011;2729;50.056;8.678;2023-07-30T13:29:23;3.50;;;1.60;;
5412;SDS011;2729;50.056;8.678;2023-07-30T13:31:48;3.20;;;1.33;;
5412;SDS011;2729;50.056;8.678;2023-07-30T13:34:14;2.00;;;1.37;;
5412;SDS011;2729;50.056;8.678;2023-07-30T13:36:40;3.13;;;1.20;;
5412;SDS011;2729;50.056;8.678;2023-07-30T13:39:05;6.20;;;1.47;;
5412;SDS011;2729;50.056;8.678;2023-07-30T13:41:31;2.40;;;1.57;;
5412;SDS011;2729;50.056;8.678;2023-07-30T13:43:56;2.20;;;1.40;;
5412;SDS011;2729;50.056;8.678;2023-07-30T13:46:22;2.13;;;1.40;;
5412;SDS011;2729;50.056;8.678;2023-07-30T13:48:48;1.80;;;1.20;;
5412;SDS011;2729;50.056;8.678;2023-07-30T13:51:13;4.87;;;1.47;;
5412;SDS011;2729;50.056;8.678;2023-07-30T13:53:39;2.90;;;1.30;;
5412;SDS011;2729;50.056;8.678;2023-07-30T13:56:06;1.60;;;1.10;;
5412;SDS011;2729;50.056;8.678;2023-07-30T13:58:32;4.90;;;1.33;;
5412;SDS011;2729;50.056;8.678;2023-07-30T14:00:58;3.27;;;1.30;;
5412;SDS011;2729;50.056;8.678;2023-07-30T14:03:23;3.37;;;1.20;;
5412;SDS011;2729;50.056;8.678;2023-07-30T14:05:49;4.90;;;1.33;;
5412;SDS011;2729;50.056;8.678;2023-07-30T14:08:15;1.97;;;1.30;;
5412;SDS011;2729;50.056;8.678;2023-07-30T14:10:42;1.33;;;1.20;;
5412;SDS011;2729;50.056;8.678;2023-07-30T14:13:07;3.93;;;1.30;;
5412;SDS011;2729;50.056;8.678;2023-07-30T14:15:33;1.90;;;1.10;;
5412;SDS011;2729;50.056;8.678;2023-07-30T14:18:01;4.17;;;1.30;;
5412;SDS011;2729;50.056;8.678;2023-07-30T14:20:27;2.10;;;1.30;;
5412;SDS011;2729;50.056;8.678;2023-07-30T14:22:53;1.87;;;1.10;;
5412;SDS011;2729;50.056;8.678;2023-07-30T14:25:19;1.67;;;1.10;;
5412;SDS011;2729;50.056;8.678;2023-07-30T14:27:45;5.20;;;1.73;;
5412;SDS011;2729;50.056;8.678;2023-07-30T14:30:11;4.23;;;1.33;;
5412;SDS011;2729;50.056;8.678;2023-07-30T14:32:36;1.10;;;1.10;;
5412;SDS011;2729;50.056;8.678;2023-07-30T14:35:02;1.83;;;1.10;;
5412;SDS011;2729;50.056;8.678;2023-07-30T14:37:30;3.27;;;1.20;;
5412;SDS011;2729;50.056;8.678;2023-07-30T14:39:56;4.23;;;1.20;;
5412;SDS011;2729;50.056;8.678;2023-07-30T14:42:22;4.00;;;1.30;;
5412;SDS011;2729;50.056;8.678;2023-07-30T14:44:47;3.60;;;1.30;;
5412;SDS011;2729;50.056;8.678;2023-07-30T14:47:13;2.00;;;1.30;;
5412;SDS011;2729;50.056;8.678;2023-07-30T14:49:39;1.90;;;1.07;;
5412;SDS011;2729;50.056;8.678;2023-07-30T14:52:04;1.40;;;1.30;;
5412;SDS011;2729;50.056;8.678;2023-07-30T14:54:30;5.73;;;1.50;;
5412;SDS011;2729;50.056;8.678;2023-07-30T14:56:55;1.57;;;1.40;;
5412;SDS011;2729;50.056;8.678;2023-07-30T14:59:22;2.60;;;1.40;;
5412;SDS011;2729;50.056;8.678;2023-07-30T15:01:48;1.67;;;1.20;;
5412;SDS011;2729;50.056;8.678;2023-07-30T15:04:13;3.00;;;1.27;;
5412;SDS011;2729;50.056;8.678;2023-07-30T15:06:39;2.33;;;1.40;;
5412;SDS011;2729;50.056;8.678;2023-07-30T15:09:05;1.10;;;1.00;;
5412;SDS011;2729;50.056;8.678;2023-07-30T15:11:31;3.10;;;1.00;;
5412;SDS011;2729;50.056;8.678;2023-07-30T15:13:56;2.77;;;1.30;;
5412;SDS011;2729;50.056;8.678;2023-07-30T15:16:22;2.20;;;1.27;;